createdAt,value
2018-07-09T00:02:22.337Z,16.89
2018-07-09T00:04:50.819Z,16.84
2018-07-09T00:07:19.905Z,16.89
2018-07-09T00:09:48.350Z,16.86
2018-07-09T00:12:16.823Z,16.80
2018-07-09T00:14:45.251Z,16.74
2018-07-09T00:17:13.721Z,16.75
2018-07-09T00:19:42.206Z,16.69
2018-07-09T00:22:11.261Z,16.64
2018-07-09T00:24:39.728Z,16.66
2018-07-09T00:27:08.205Z,16.57
2018-07-09T00:29:36.633Z,16.52
2018-07-09T00:32:05.097Z,16.45
2018-07-09T00:34:33.530Z,16.48
2018-07-09T00:37:01.973Z,16.43
2018-07-09T00:39:30.468Z,16.39
2018-07-09T00:41:59.017Z,16.35
2018-07-09T00:44:27.493Z,16.29
2018-07-09T00:46:56.178Z,16.25
2018-07-09T00:49:24.645Z,16.22
2018-07-09T00:51:53.309Z,16.21
2018-07-09T00:54:21.782Z,16.20
2018-07-09T00:56:50.829Z,16.13
2018-07-09T00:59:19.285Z,16.11
2018-07-09T01:01:47.785Z,16.04
2018-07-09T01:04:16.220Z,16.07
2018-07-09T01:06:45.246Z,15.99
2018-07-09T01:09:13.687Z,15.96
2018-07-09T01:11:46.918Z,15.94
2018-07-09T01:14:15.465Z,15.94
2018-07-09T01:16:43.923Z,15.84
2018-07-09T01:19:12.360Z,15.75
2018-07-09T01:21:40.874Z,15.79
2018-07-09T01:24:09.406Z,15.68
2018-07-09T01:26:38.932Z,15.60
2018-07-09T01:29:07.390Z,15.59
2018-07-09T01:31:36.055Z,15.52
2018-07-09T01:34:04.465Z,15.39
2018-07-09T01:36:32.946Z,15.36
2018-07-09T01:39:01.350Z,15.34
2018-07-09T01:41:29.824Z,15.33
2018-07-09T01:43:58.270Z,15.29
2018-07-09T01:46:26.725Z,15.20
2018-07-09T01:48:55.153Z,15.15
2018-07-09T01:51:23.571Z,15.11
2018-07-09T01:53:52.025Z,15.09
2018-07-09T01:56:20.439Z,15.00
2018-07-09T01:58:48.865Z,15.00
2018-07-09T02:01:17.273Z,15.04
2018-07-09T02:03:45.714Z,14.93
2018-07-09T02:06:14.211Z,15.00
2018-07-09T02:08:42.674Z,14.87
2018-07-09T02:11:11.110Z,14.89
2018-07-09T02:13:39.537Z,14.92
2018-07-09T02:16:07.921Z,14.88
2018-07-09T02:18:36.353Z,14.88
2018-07-09T02:21:04.772Z,14.79
2018-07-09T02:23:33.176Z,14.65
2018-07-09T02:26:01.554Z,14.69
2018-07-09T02:28:29.964Z,14.65
2018-07-09T02:30:58.383Z,14.78
2018-07-09T02:33:26.959Z,14.75
2018-07-09T02:35:55.346Z,14.60
2018-07-09T02:38:23.781Z,14.63
2018-07-09T02:40:52.173Z,14.71
2018-07-09T02:43:20.610Z,14.60
2018-07-09T02:45:49.018Z,14.57
2018-07-09T02:48:17.697Z,14.51
2018-07-09T02:50:46.120Z,14.50
2018-07-09T02:53:14.560Z,14.50
2018-07-09T02:55:43.011Z,14.56
2018-07-09T02:58:11.414Z,14.51
2018-07-09T03:00:39.836Z,14.45
2018-07-09T03:03:08.241Z,14.42
2018-07-09T03:05:36.659Z,14.37
2018-07-09T03:08:05.121Z,14.31
2018-07-09T03:10:33.500Z,14.28
2018-07-09T03:13:01.923Z,14.24
2018-07-09T03:15:30.339Z,14.18
2018-07-09T03:17:58.743Z,14.16
2018-07-09T03:20:27.138Z,14.09
2018-07-09T03:22:55.635Z,14.10
2018-07-09T03:25:24.031Z,14.11
2018-07-09T03:27:52.506Z,14.13
2018-07-09T03:30:20.960Z,14.06
2018-07-09T03:32:49.396Z,14.07
2018-07-09T03:35:17.869Z,14.01
2018-07-09T03:37:46.261Z,14.02
2018-07-09T03:40:14.684Z,14.03
2018-07-09T03:42:43.128Z,14.02
2018-07-09T03:45:11.618Z,14.03
2018-07-09T03:47:40.130Z,14.03
2018-07-09T03:50:08.541Z,14.01
2018-07-09T03:52:36.986Z,14.03
2018-07-09T03:55:05.467Z,13.98
2018-07-09T03:57:33.893Z,14.03
2018-07-09T04:00:02.346Z,14.08
2018-07-09T04:02:30.758Z,14.13
2018-07-09T04:04:59.235Z,14.19
2018-07-09T04:07:27.677Z,14.11
2018-07-09T04:09:56.126Z,14.11
2018-07-09T04:12:24.589Z,14.12
2018-07-09T04:14:53.054Z,14.17
2018-07-09T04:17:21.633Z,14.25
2018-07-09T04:19:50.095Z,14.30
2018-07-09T04:22:18.500Z,14.22
2018-07-09T04:24:47.017Z,14.33
2018-07-09T04:27:15.473Z,14.33
2018-07-09T04:29:43.932Z,14.41
2018-07-09T04:32:12.380Z,14.57
2018-07-09T04:34:40.893Z,14.57
2018-07-09T04:37:09.332Z,14.61
2018-07-09T04:39:37.772Z,14.79
2018-07-09T04:42:06.261Z,14.84
2018-07-09T04:44:34.707Z,14.77
2018-07-09T04:47:03.186Z,15.03
2018-07-09T04:49:31.937Z,15.12
2018-07-09T04:52:00.369Z,15.23
2018-07-09T04:54:28.836Z,15.25
2018-07-09T04:56:58.217Z,15.22
2018-07-09T04:59:27.521Z,15.01
2018-07-09T05:01:56.189Z,15.16
2018-07-09T05:04:24.696Z,15.17
2018-07-09T05:06:53.276Z,15.29
2018-07-09T05:09:21.732Z,15.30
2018-07-09T05:11:50.145Z,15.44
2018-07-09T05:14:18.601Z,15.51
2018-07-09T05:16:47.027Z,15.62
2018-07-09T05:19:15.471Z,15.70
2018-07-09T05:21:43.962Z,15.67
2018-07-09T05:24:12.382Z,15.85
2018-07-09T05:26:40.837Z,16.03
2018-07-09T05:29:09.276Z,16.01
2018-07-09T05:31:37.731Z,15.99
2018-07-09T05:34:06.174Z,15.96
2018-07-09T05:36:34.660Z,16.29
2018-07-09T05:39:03.419Z,16.36
2018-07-09T05:41:32.056Z,16.59
2018-07-09T05:44:00.465Z,16.66
2018-07-09T05:46:29.029Z,16.87
2018-07-09T05:48:58.374Z,16.45
2018-07-09T05:51:26.805Z,16.81
2018-07-09T05:53:55.208Z,16.84
2018-07-09T05:56:23.957Z,17.19
2018-07-09T05:58:53.084Z,17.54
2018-07-09T06:01:21.510Z,17.26
2018-07-09T06:03:49.942Z,17.13
2018-07-09T06:06:18.445Z,17.48
2018-07-09T06:08:47.385Z,17.30
2018-07-09T06:11:15.900Z,17.50
2018-07-09T06:13:44.258Z,17.30
2018-07-09T06:16:12.714Z,17.39
2018-07-09T06:18:41.677Z,17.64
2018-07-09T06:21:10.122Z,17.56
2018-07-09T06:23:38.602Z,16.96
2018-07-09T06:26:07.122Z,17.46
2018-07-09T06:28:35.530Z,17.52
2018-07-09T06:31:04.001Z,17.40
2018-07-09T06:33:32.521Z,17.77
2018-07-09T06:36:01.002Z,17.84
2018-07-09T06:38:29.414Z,18.35
2018-07-09T06:40:57.845Z,18.05
2018-07-09T06:43:26.269Z,18.10
2018-07-09T06:45:54.669Z,18.32
2018-07-09T06:48:23.097Z,18.27
2018-07-09T06:50:51.618Z,18.19
2018-07-09T06:53:20.092Z,18.04
2018-07-09T06:55:48.549Z,18.73
2018-07-09T06:58:16.985Z,18.87
2018-07-09T07:00:45.425Z,19.34
2018-07-09T07:03:13.943Z,18.91
2018-07-09T07:05:42.418Z,18.93
2018-07-09T07:08:10.928Z,19.18
2018-07-09T07:10:39.506Z,19.67
2018-07-09T07:13:07.975Z,19.53
2018-07-09T07:15:36.449Z,20.22
2018-07-09T07:18:04.986Z,20.33
2018-07-09T07:20:33.442Z,20.23
2018-07-09T07:23:01.921Z,20.13
2018-07-09T07:25:30.461Z,19.90
2018-07-09T07:27:59.218Z,20.38
2018-07-09T07:30:27.714Z,19.10
2018-07-09T07:32:56.224Z,19.95
2018-07-09T07:35:24.658Z,19.22
2018-07-09T07:37:53.150Z,19.74
2018-07-09T07:40:21.613Z,20.23
2018-07-09T07:42:50.113Z,20.68
2018-07-09T07:45:18.732Z,20.48
2018-07-09T07:47:47.176Z,19.55
2018-07-09T07:50:15.659Z,19.65
2018-07-09T07:52:44.125Z,20.12
2018-07-09T07:55:13.225Z,20.51
2018-07-09T07:57:41.753Z,20.89
2018-07-09T08:00:11.158Z,21.09
2018-07-09T08:02:39.808Z,20.36
2018-07-09T08:05:08.359Z,19.64
2018-07-09T08:07:36.906Z,20.21
2018-07-09T08:10:06.218Z,21.14
2018-07-09T08:15:03.147Z,21.80
2018-07-09T08:17:31.622Z,20.70
2018-07-09T08:20:00.099Z,20.37
2018-07-09T08:22:28.627Z,20.15
2018-07-09T08:24:57.088Z,20.91
2018-07-09T08:27:25.473Z,21.13
2018-07-09T08:29:53.897Z,21.29
2018-07-09T08:32:22.385Z,21.53
2018-07-09T08:34:50.786Z,20.77
2018-07-09T08:37:19.237Z,20.39
2018-07-09T08:39:47.705Z,20.96
2018-07-09T08:42:16.130Z,21.87
2018-07-09T08:44:44.906Z,22.15
2018-07-09T08:47:14.041Z,21.72
2018-07-09T08:49:42.524Z,21.66
2018-07-09T08:52:11.009Z,22.19
2018-07-09T08:54:39.561Z,22.66
2018-07-09T08:57:07.981Z,22.69
2018-07-09T08:59:36.394Z,22.15
2018-07-09T09:02:04.839Z,21.82
2018-07-09T09:04:33.286Z,20.96
2018-07-09T09:07:01.742Z,21.22
2018-07-09T09:09:30.317Z,21.74
2018-07-09T09:11:58.717Z,20.45
2018-07-09T09:14:27.727Z,21.28
2018-07-09T09:16:56.950Z,21.33
2018-07-09T09:19:25.467Z,21.27
2018-07-09T09:21:53.935Z,21.47
2018-07-09T09:24:22.396Z,21.16
2018-07-09T09:26:51.004Z,21.87
2018-07-09T09:29:19.417Z,22.20
2018-07-09T09:31:47.910Z,22.33
2018-07-09T09:34:16.329Z,22.51
2018-07-09T09:36:44.761Z,22.23
2018-07-09T09:39:13.216Z,22.34
2018-07-09T09:41:41.621Z,22.65
2018-07-09T09:44:10.186Z,22.73
2018-07-09T09:46:39.103Z,22.85
2018-07-09T09:49:07.523Z,22.86
2018-07-09T09:51:36.601Z,22.38
2018-07-09T09:54:05.099Z,22.25
2018-07-09T09:56:33.614Z,22.55
2018-07-09T09:59:02.094Z,22.93
2018-07-09T10:01:30.538Z,23.02
2018-07-09T10:03:59.021Z,22.21
2018-07-09T10:06:27.433Z,22.84
2018-07-09T10:08:55.945Z,23.00
2018-07-09T10:11:24.402Z,23.08
2018-07-09T10:13:52.908Z,22.48
2018-07-09T10:16:21.347Z,23.05
2018-07-09T10:18:49.835Z,23.27
2018-07-09T10:21:18.257Z,23.33
2018-07-09T10:23:46.697Z,22.99
2018-07-09T10:26:15.136Z,22.75
2018-07-09T10:28:43.570Z,23.09
2018-07-09T10:31:12.006Z,22.55
2018-07-09T10:33:40.550Z,23.06
2018-07-09T10:36:08.977Z,22.02
2018-07-09T10:38:37.448Z,22.86
2018-07-09T10:41:06.936Z,23.00
2018-07-09T10:43:35.412Z,23.34
2018-07-09T10:46:03.879Z,23.41
2018-07-09T10:48:32.353Z,23.83
2018-07-09T10:51:00.841Z,24.16
2018-07-09T10:53:29.520Z,24.68
2018-07-09T10:55:58.088Z,25.27
2018-07-09T10:58:26.556Z,24.54
2018-07-09T11:00:55.138Z,24.65
2018-07-09T11:03:23.630Z,24.25
2018-07-09T11:05:52.125Z,24.44
2018-07-09T11:08:20.837Z,24.53
2018-07-09T11:10:49.505Z,25.10
2018-07-09T11:13:18.007Z,25.73
2018-07-09T11:15:46.482Z,25.40
2018-07-09T11:18:14.926Z,24.74
2018-07-09T11:20:43.409Z,24.69
2018-07-09T11:23:11.885Z,24.93
2018-07-09T11:25:40.393Z,24.62
2018-07-09T11:28:08.854Z,25.00
2018-07-09T11:30:37.315Z,25.67
2018-07-09T11:33:05.842Z,26.00
2018-07-09T11:35:34.322Z,24.67
2018-07-09T11:38:02.774Z,25.23
2018-07-09T11:40:31.237Z,24.80
2018-07-09T11:42:59.725Z,24.72
2018-07-09T11:45:28.241Z,25.00
2018-07-09T11:47:56.678Z,25.22
2018-07-09T11:50:25.170Z,25.42
2018-07-09T11:52:56.013Z,25.04
2018-07-09T11:55:25.722Z,25.86
2018-07-09T11:57:54.297Z,25.62
2018-07-09T12:00:22.838Z,23.79
2018-07-09T12:02:51.257Z,23.96
2018-07-09T12:05:19.704Z,24.74
2018-07-09T12:07:54.571Z,24.91
2018-07-09T12:10:23.073Z,24.82
2018-07-09T12:12:51.539Z,25.53
2018-07-09T12:15:21.063Z,25.85
2018-07-09T12:17:49.502Z,26.23
2018-07-09T12:20:17.960Z,24.94
2018-07-09T12:22:46.388Z,25.13
2018-07-09T12:25:14.906Z,25.04
2018-07-09T12:27:43.330Z,26.04
2018-07-09T12:30:11.838Z,26.35
2018-07-09T12:32:40.284Z,26.38
2018-07-09T12:35:08.800Z,27.40
2018-07-09T12:37:37.283Z,27.63
2018-07-09T12:40:05.833Z,26.60
2018-07-09T12:42:34.290Z,26.47
2018-07-09T12:45:02.761Z,26.65
2018-07-09T12:47:31.200Z,27.71
2018-07-09T12:49:59.700Z,26.99
2018-07-09T12:52:28.232Z,26.92
2018-07-09T12:54:56.701Z,26.90
2018-07-09T12:57:25.137Z,27.52
2018-07-09T12:59:53.610Z,27.82
2018-07-09T13:02:22.038Z,28.11
2018-07-09T13:04:50.442Z,25.48
2018-07-09T13:07:18.862Z,27.67
2018-07-09T13:09:47.252Z,28.89
2018-07-09T13:12:19.792Z,28.74
2018-07-09T13:14:48.745Z,27.60
2018-07-09T13:17:17.213Z,27.23
2018-07-09T13:19:45.683Z,27.39
2018-07-09T13:22:14.075Z,27.78
2018-07-09T13:24:42.498Z,28.21
2018-07-09T13:27:10.961Z,28.71
2018-07-09T13:29:39.438Z,29.00
2018-07-09T13:32:07.893Z,28.17
2018-07-09T13:34:36.341Z,27.72
2018-07-09T13:37:05.443Z,26.76
2018-07-09T13:39:34.425Z,25.60
2018-07-09T13:42:02.885Z,26.75
2018-07-09T13:44:31.340Z,26.93
2018-07-09T13:46:59.886Z,27.76
2018-07-09T13:49:28.321Z,27.42
2018-07-09T13:51:56.826Z,26.92
2018-07-09T13:54:25.364Z,26.31
2018-07-09T13:56:53.847Z,26.86
2018-07-09T13:59:22.429Z,27.60
2018-07-09T14:01:50.876Z,26.96
2018-07-09T14:04:19.305Z,26.79
2018-07-09T14:06:47.739Z,27.36
2018-07-09T14:09:16.224Z,27.58
2018-07-09T14:11:44.750Z,28.17
2018-07-09T14:14:13.264Z,28.63
2018-07-09T14:16:41.771Z,29.43
2018-07-09T14:20:34.378Z,28.10
2018-07-09T14:23:03.361Z,29.56
2018-07-09T14:25:31.849Z,28.63
2018-07-09T14:28:00.557Z,29.38
2018-07-09T14:30:29.003Z,29.18
2018-07-09T14:32:57.491Z,29.84
2018-07-09T14:35:25.987Z,29.56
2018-07-09T14:37:54.467Z,29.82
2018-07-09T14:40:23.205Z,27.76
2018-07-09T14:42:51.726Z,26.32
2018-07-09T14:45:21.164Z,26.27
2018-07-09T14:47:49.641Z,26.67
2018-07-09T14:50:18.126Z,26.81
2018-07-09T14:52:46.718Z,26.62
2018-07-09T14:55:15.221Z,26.75
2018-07-09T14:57:43.704Z,25.83
2018-07-09T15:00:12.238Z,25.27
2018-07-09T15:02:40.702Z,25.31
2018-07-09T15:05:09.172Z,25.94
2018-07-09T15:07:37.671Z,26.46
2018-07-09T15:10:06.224Z,27.30
2018-07-09T15:12:34.717Z,27.28
2018-07-09T15:15:03.198Z,27.47
2018-07-09T15:17:31.713Z,27.33
2018-07-09T15:20:00.132Z,26.58
2018-07-09T15:22:28.657Z,27.15
2018-07-09T15:24:57.129Z,26.61
2018-07-09T15:27:25.649Z,26.17
2018-07-09T15:29:54.114Z,25.79
2018-07-09T15:32:24.557Z,26.17
2018-07-09T15:34:53.141Z,25.99
2018-07-09T15:37:21.761Z,26.38
2018-07-09T15:39:50.249Z,26.48
2018-07-09T15:42:18.741Z,26.22
2018-07-09T15:44:47.509Z,26.28
2018-07-09T15:47:16.181Z,26.16
2018-07-09T15:49:44.938Z,26.47
2018-07-09T15:52:13.770Z,26.38
2018-07-09T15:54:42.230Z,26.81
2018-07-09T15:57:11.113Z,27.14
2018-07-09T15:59:39.637Z,26.85
2018-07-09T16:02:08.097Z,27.24
2018-07-09T16:04:36.549Z,26.86
2018-07-09T16:07:07.149Z,26.01
2018-07-09T16:09:35.585Z,25.76
2018-07-09T16:12:04.041Z,26.32
2018-07-09T16:14:32.518Z,25.45
2018-07-09T16:17:01.235Z,25.54
2018-07-09T16:19:29.662Z,25.68
2018-07-09T16:21:58.173Z,26.30
2018-07-09T16:24:26.724Z,25.55
2018-07-09T16:27:00.997Z,25.83
2018-07-09T16:29:29.426Z,26.24
2018-07-09T16:31:57.909Z,26.58
2018-07-09T16:34:26.376Z,25.64
2018-07-09T16:36:54.855Z,26.11
2018-07-09T16:39:23.361Z,25.72
2018-07-09T16:41:53.176Z,25.78
2018-07-09T16:44:21.655Z,26.52
2018-07-09T16:46:50.218Z,25.78
2018-07-09T16:49:18.657Z,25.90
2018-07-09T16:51:47.178Z,25.52
2018-07-09T16:54:15.646Z,25.51
2018-07-09T16:56:44.203Z,25.49
2018-07-09T16:59:13.353Z,24.54
2018-07-09T17:01:41.794Z,24.50
2018-07-09T17:06:17.731Z,24.85
2018-07-09T17:08:46.205Z,24.76
2018-07-09T17:11:14.658Z,24.68
2018-07-09T17:13:43.138Z,24.48
2018-07-09T17:16:11.805Z,24.55
2018-07-09T17:18:42.449Z,24.55
2018-07-09T17:21:10.918Z,24.23
2018-07-09T17:23:39.418Z,23.95
2018-07-09T17:26:07.878Z,23.85
2018-07-09T17:28:36.343Z,23.86
2018-07-09T17:31:04.804Z,23.80
2018-07-09T17:33:33.265Z,23.73
2018-07-09T17:36:01.721Z,23.77
2018-07-09T17:38:31.021Z,23.61
2018-07-09T17:40:59.468Z,23.56
2018-07-09T17:43:28.007Z,23.64
2018-07-09T17:45:56.479Z,23.60
2018-07-09T17:48:25.014Z,23.53
2018-07-09T17:50:53.613Z,23.53
2018-07-09T17:53:22.605Z,23.51
2018-07-09T17:55:51.021Z,23.48
2018-07-09T17:58:19.474Z,23.73
2018-07-09T18:00:47.908Z,23.55
2018-07-09T18:03:16.329Z,23.69
2018-07-09T18:05:44.882Z,23.53
2018-07-09T18:08:13.296Z,23.64
2018-07-09T18:10:41.764Z,23.50
2018-07-09T18:13:10.229Z,23.58
2018-07-09T18:15:39.165Z,23.50
2018-07-09T18:18:08.045Z,23.50
2018-07-09T18:20:37.386Z,23.43
2018-07-09T18:23:06.278Z,23.18
2018-07-09T18:25:34.894Z,23.41
2018-07-09T18:28:03.400Z,23.14
2018-07-09T18:30:32.197Z,23.16
2018-07-09T18:33:00.825Z,23.15
2018-07-09T18:35:29.552Z,22.92
2018-07-09T18:37:57.985Z,22.94
2018-07-09T18:40:26.523Z,22.99
2018-07-09T18:42:56.168Z,22.77
2018-07-09T18:45:25.074Z,22.78
2018-07-09T18:47:53.827Z,22.83
2018-07-09T18:50:22.289Z,22.76
2018-07-09T18:52:50.758Z,22.60
2018-07-09T18:55:19.647Z,22.50
2018-07-09T18:57:48.527Z,22.46
2018-07-09T19:00:18.062Z,22.45
2018-07-09T19:02:46.859Z,22.45
2018-07-09T19:05:15.664Z,22.35
2018-07-09T19:07:44.383Z,22.31
2018-07-09T19:10:12.932Z,22.32
2018-07-09T19:12:41.498Z,22.26
2018-07-09T19:15:10.063Z,22.34
2018-07-09T19:18:01.386Z,22.27
2018-07-09T19:21:40.586Z,22.22
2018-07-09T19:24:09.261Z,22.16
2018-07-09T19:26:36.966Z,22.14
2018-07-09T19:29:04.446Z,22.13
2018-07-09T19:31:34.961Z,22.04
2018-07-09T19:34:02.230Z,22.02
2018-07-09T19:36:29.557Z,22.01
2018-07-09T19:38:56.753Z,21.92
2018-07-09T19:41:24.029Z,21.82
2018-07-09T19:43:51.294Z,21.73
2018-07-09T19:46:18.566Z,21.73
2018-07-09T19:48:46.704Z,21.62
2018-07-09T19:51:14.866Z,21.60
2018-07-09T19:53:42.094Z,21.53
2018-07-09T19:56:10.272Z,21.54
2018-07-09T19:58:37.569Z,21.40
2018-07-09T20:01:04.824Z,21.42
2018-07-09T20:03:32.141Z,21.19
2018-07-09T20:05:59.437Z,21.20
2018-07-09T20:08:32.112Z,21.17
2018-07-09T20:11:04.606Z,21.16
2018-07-09T20:14:02.337Z,21.14
2018-07-09T20:16:35.000Z,21.10
2018-07-09T20:19:02.598Z,21.12
2018-07-09T20:21:30.881Z,20.92
2018-07-09T20:23:58.385Z,20.88
2018-07-09T20:26:26.274Z,20.83
2018-07-09T20:28:53.651Z,20.78
2018-07-09T20:31:21.463Z,20.79
2018-07-09T20:33:49.004Z,20.64
2018-07-09T20:36:17.260Z,20.69
2018-07-09T20:38:44.886Z,20.66
2018-07-09T20:41:12.606Z,20.72
2018-07-09T20:43:39.846Z,20.63
2018-07-09T20:46:07.105Z,20.61
2018-07-09T20:48:34.356Z,20.53
2018-07-09T20:51:01.641Z,20.62
2018-07-09T20:53:28.870Z,20.60
2018-07-09T20:55:56.122Z,20.66
2018-07-09T20:58:23.358Z,20.65
2018-07-09T21:00:50.648Z,20.59
2018-07-09T21:03:17.880Z,20.54
2018-07-09T21:05:45.170Z,20.49
2018-07-09T21:08:12.440Z,20.29
2018-07-09T21:10:39.966Z,19.93
2018-07-09T21:13:07.214Z,19.72
2018-07-09T21:15:34.549Z,19.60
2018-07-09T21:18:01.713Z,19.55
2018-07-09T21:20:28.949Z,19.56
2018-07-09T21:22:56.179Z,19.47
2018-07-09T21:25:23.423Z,19.54
2018-07-09T21:27:50.646Z,19.51
2018-07-09T21:30:17.878Z,19.52
2018-07-09T21:32:45.130Z,19.58
2018-07-09T21:35:12.361Z,19.61
2018-07-09T21:37:39.700Z,19.64
2018-07-09T21:40:06.867Z,19.66
2018-07-09T21:42:34.168Z,19.62
2018-07-09T21:45:01.417Z,19.59
2018-07-09T21:47:28.677Z,19.60
2018-07-09T21:49:55.909Z,19.52
2018-07-09T21:52:24.022Z,19.43
2018-07-09T21:54:51.277Z,19.43
2018-07-09T21:57:18.524Z,19.44
2018-07-09T21:59:45.773Z,19.33
2018-07-09T22:02:13.009Z,19.41
2018-07-09T22:04:40.249Z,19.43
2018-07-09T22:07:07.495Z,19.42
2018-07-09T22:09:34.836Z,19.34
2018-07-09T22:12:02.104Z,19.40
2018-07-09T22:14:29.322Z,19.38
2018-07-09T22:16:56.748Z,19.29
2018-07-09T22:19:24.119Z,19.10
2018-07-09T22:21:51.367Z,18.98
2018-07-09T22:24:18.717Z,18.78
2018-07-09T22:26:45.953Z,18.76
2018-07-09T22:29:13.201Z,18.71
2018-07-09T22:31:41.713Z,18.67
2018-07-09T22:34:10.117Z,18.61
2018-07-09T22:36:38.682Z,18.48
2018-07-09T22:39:07.190Z,18.41
2018-07-09T22:41:35.608Z,18.44
2018-07-09T22:44:18.042Z,18.37
2018-07-09T22:46:46.892Z,18.25
2018-07-09T22:49:15.283Z,18.29
2018-07-09T22:51:43.865Z,18.19
2018-07-09T22:54:12.266Z,18.22
2018-07-09T22:56:40.722Z,18.17
2018-07-09T22:59:09.129Z,18.11
2018-07-09T23:01:37.686Z,18.03
2018-07-09T23:04:06.173Z,18.04
2018-07-09T23:06:34.593Z,17.98
2018-07-09T23:09:14.409Z,17.98
2018-07-09T23:14:56.503Z,18.09
2018-07-09T23:17:36.113Z,18.05
2018-07-09T23:20:51.045Z,18.11
2018-07-09T23:23:18.281Z,18.05
2018-07-09T23:25:45.520Z,18.03
2018-07-09T23:28:12.991Z,18.14
2018-07-09T23:30:40.364Z,18.14
2018-07-09T23:33:07.621Z,18.06
2018-07-09T23:35:34.878Z,18.26
2018-07-09T23:38:02.121Z,18.12
2018-07-09T23:40:29.344Z,17.98
2018-07-09T23:42:56.601Z,18.03
2018-07-09T23:45:23.875Z,18.15
2018-07-09T23:47:52.133Z,18.03
2018-07-09T23:50:19.360Z,18.05
2018-07-09T23:52:46.613Z,18.07
2018-07-09T23:55:13.835Z,18.07
2018-07-09T23:59:55.709Z,18.02
